createdAt,value
2019-05-13T00:00:33.858Z,99.90
2019-05-13T00:03:04.012Z,99.90
2019-05-13T00:05:34.869Z,99.90
2019-05-13T00:08:05.768Z,99.90
2019-05-13T00:10:36.434Z,99.90
2019-05-13T00:13:07.435Z,99.90
2019-05-13T00:15:38.354Z,99.90
2019-05-13T00:18:09.099Z,99.90
2019-05-13T00:20:39.859Z,99.90
2019-05-13T00:23:10.669Z,99.90
2019-05-13T00:25:44.196Z,99.90
2019-05-13T00:28:14.611Z,99.90
2019-05-13T00:30:45.355Z,99.90
2019-05-13T00:33:16.279Z,99.90
2019-05-13T00:35:47.164Z,99.90
2019-05-13T00:38:17.975Z,99.90
2019-05-13T00:40:48.691Z,99.90
2019-05-13T00:43:19.804Z,99.90
2019-05-13T00:45:50.615Z,99.90
2019-05-13T00:48:23.378Z,99.90
2019-05-13T00:50:54.542Z,99.90
2019-05-13T00:53:25.464Z,99.90
2019-05-13T00:55:56.210Z,99.90
2019-05-13T00:58:27.178Z,99.90
2019-05-13T01:00:57.987Z,99.90
2019-05-13T01:03:28.691Z,99.90
2019-05-13T01:05:59.562Z,99.90
2019-05-13T01:08:30.221Z,99.90
2019-05-13T01:11:01.157Z,99.90
2019-05-13T01:13:34.049Z,99.90
2019-05-13T01:16:04.302Z,99.90
2019-05-13T01:18:35.183Z,99.90
2019-05-13T01:21:06.187Z,99.90
2019-05-13T01:23:36.942Z,99.90
2019-05-13T01:26:07.792Z,99.90
2019-05-13T01:28:38.478Z,99.90
2019-05-13T01:31:09.211Z,99.90
2019-05-13T01:33:40.062Z,99.90
2019-05-13T01:36:13.247Z,99.90
2019-05-13T01:38:43.656Z,99.90
2019-05-13T01:41:14.516Z,99.90
2019-05-13T01:43:45.247Z,99.90
2019-05-13T01:46:16.041Z,99.90
2019-05-13T01:48:46.936Z,99.90
2019-05-13T01:51:17.822Z,99.90
2019-05-13T01:53:49.032Z,99.90
2019-05-13T01:56:19.871Z,99.90
2019-05-13T01:58:50.626Z,99.90
2019-05-13T02:01:21.420Z,99.90
2019-05-13T02:03:54.382Z,99.90
2019-05-13T02:06:24.776Z,99.90
2019-05-13T02:08:55.630Z,99.90
2019-05-13T02:11:26.390Z,99.90
2019-05-13T02:13:57.341Z,99.90
2019-05-13T02:16:28.375Z,99.90
2019-05-13T02:18:59.120Z,99.90
2019-05-13T02:21:29.845Z,99.90
2019-05-13T02:24:00.584Z,99.90
2019-05-13T02:26:31.490Z,99.90
2019-05-13T02:29:03.802Z,99.90
2019-05-13T02:31:45.538Z,99.90
2019-05-13T02:34:07.281Z,99.90
2019-05-13T02:36:38.130Z,99.90
2019-05-13T02:39:12.707Z,99.90
2019-05-13T02:41:43.197Z,99.90
2019-05-13T02:44:14.475Z,99.90
2019-05-13T02:46:45.512Z,99.90
2019-05-13T02:49:16.321Z,99.90
2019-05-13T02:51:47.220Z,99.90
2019-05-13T02:54:18.148Z,99.90
2019-05-13T02:56:48.935Z,99.90
2019-05-13T02:59:22.441Z,99.90
2019-05-13T03:01:53.341Z,99.90
2019-05-13T03:04:24.415Z,99.90
2019-05-13T03:06:55.281Z,99.90
2019-05-13T03:09:26.061Z,99.90
2019-05-13T03:11:56.762Z,99.90
2019-05-13T03:14:27.694Z,99.90
2019-05-13T03:17:22.230Z,99.90
2019-05-13T03:19:52.959Z,99.90
2019-05-13T03:22:24.264Z,99.90
2019-05-13T03:24:55.262Z,99.90
2019-05-13T03:27:26.205Z,99.90
2019-05-13T03:29:57.115Z,99.90
2019-05-13T03:32:36.019Z,99.90
2019-05-13T03:35:06.393Z,99.90
2019-05-13T03:37:34.801Z,99.90
2019-05-13T03:40:05.906Z,99.90
2019-05-13T03:42:37.751Z,99.90
2019-05-13T03:45:08.494Z,99.90
2019-05-13T03:47:42.158Z,99.90
2019-05-13T03:50:13.826Z,99.90
2019-05-13T03:52:44.676Z,99.90
2019-05-13T03:55:16.070Z,99.90
2019-05-13T03:57:46.944Z,99.90
2019-05-13T04:00:17.919Z,99.90
2019-05-13T04:02:51.911Z,99.90
2019-05-13T04:05:22.879Z,99.90
2019-05-13T04:07:54.112Z,99.90
2019-05-13T04:10:25.045Z,99.90
2019-05-13T04:12:55.770Z,99.90
2019-05-13T04:15:26.514Z,99.90
2019-05-13T04:17:57.718Z,99.90
2019-05-13T04:20:28.504Z,99.90
2019-05-13T04:23:02.687Z,99.90
2019-05-13T04:25:32.330Z,99.90
2019-05-13T04:28:03.693Z,99.90
2019-05-13T04:30:34.560Z,99.90
2019-05-13T04:33:05.545Z,99.90
2019-05-13T04:35:36.454Z,99.90
2019-05-13T04:38:10.255Z,99.90
2019-05-13T04:40:42.491Z,99.90
2019-05-13T04:43:13.170Z,99.90
2019-05-13T04:45:44.340Z,99.90
2019-05-13T04:48:15.295Z,99.90
2019-05-13T04:50:46.470Z,99.90
2019-05-13T04:53:17.347Z,99.90
2019-05-13T04:55:48.172Z,99.90
2019-05-13T04:58:23.146Z,99.90
2019-05-13T05:01:26.420Z,99.90
2019-05-13T05:04:22.616Z,99.90
2019-05-13T05:07:04.385Z,99.90
2019-05-13T05:10:17.728Z,99.90
2019-05-13T05:13:07.269Z,99.90
2019-05-13T05:16:02.888Z,99.90
2019-05-13T05:19:07.705Z,99.90
2019-05-13T05:21:56.729Z,99.90
2019-05-13T05:24:53.963Z,99.90
2019-05-13T05:27:41.924Z,99.90
2019-05-13T05:30:51.863Z,99.90
2019-05-13T05:33:54.765Z,99.90
2019-05-13T05:37:03.009Z,99.90
2019-05-13T05:39:34.464Z,99.90
2019-05-13T05:42:06.964Z,99.90
2019-05-13T05:44:39.630Z,99.90
2019-05-13T05:47:12.789Z,99.90
2019-05-13T05:49:46.095Z,99.90
2019-05-13T05:52:18.409Z,99.90
2019-05-13T05:54:51.772Z,99.90
2019-05-13T05:57:24.498Z,99.90
2019-05-13T05:59:57.144Z,99.90
2019-05-13T06:02:32.218Z,99.90
2019-05-13T06:05:04.198Z,99.90
2019-05-13T06:07:37.019Z,99.90
2019-05-13T06:10:07.981Z,99.90
2019-05-13T06:12:39.345Z,99.90
2019-05-13T06:15:12.340Z,99.90
2019-05-13T06:17:43.138Z,99.90
2019-05-13T06:20:14.094Z,99.90
2019-05-13T06:22:45.089Z,99.90
2019-05-13T06:25:16.089Z,99.90
2019-05-13T06:27:46.926Z,99.90
2019-05-13T06:30:17.963Z,99.90
2019-05-13T06:32:48.796Z,99.90
2019-05-13T06:35:21.688Z,99.90
2019-05-13T06:37:52.201Z,99.90
2019-05-13T06:40:23.358Z,99.90
2019-05-13T06:42:54.385Z,99.90
2019-05-13T06:45:25.293Z,99.90
2019-05-13T06:47:56.309Z,99.90
2019-05-13T06:50:27.266Z,99.90
2019-05-13T06:52:58.289Z,99.90
2019-05-13T06:55:31.446Z,99.90
2019-05-13T06:58:02.228Z,99.90
2019-05-13T07:00:34.861Z,99.90
2019-05-13T07:03:05.926Z,99.90
2019-05-13T07:05:37.096Z,99.90
2019-05-13T07:08:08.249Z,99.90
2019-05-13T07:10:41.263Z,99.90
2019-05-13T07:13:11.658Z,99.90
2019-05-13T07:15:42.556Z,99.90
2019-05-13T07:18:16.064Z,99.90
2019-05-13T07:20:45.836Z,99.90
2019-05-13T07:23:16.669Z,99.90
2019-05-13T07:25:47.509Z,99.90
2019-05-13T07:28:18.265Z,99.90
2019-05-13T07:30:51.449Z,99.90
2019-05-13T07:33:21.593Z,99.90
2019-05-13T07:35:58.283Z,99.90
2019-05-13T07:38:26.129Z,99.90
2019-05-13T07:41:02.549Z,99.90
2019-05-13T07:43:33.840Z,99.90
2019-05-13T07:46:04.666Z,99.90
2019-05-13T07:48:41.425Z,99.90
2019-05-13T07:51:11.926Z,99.90
2019-05-13T07:53:43.349Z,99.90
2019-05-13T07:56:14.404Z,99.90
2019-05-13T07:58:45.446Z,99.90
2019-05-13T08:01:16.409Z,99.90
2019-05-13T08:03:47.279Z,99.90
2019-05-13T08:06:18.024Z,99.90
2019-05-13T08:08:48.955Z,99.90
2019-05-13T08:11:22.385Z,99.90
2019-05-13T08:13:52.744Z,99.90
2019-05-13T08:16:23.605Z,99.90
2019-05-13T08:18:54.339Z,99.90
2019-05-13T08:21:25.293Z,99.90
2019-05-13T08:23:56.150Z,99.90
2019-05-13T08:26:26.915Z,99.90
2019-05-13T08:29:02.160Z,99.40
2019-05-13T08:31:32.271Z,98.60
2019-05-13T08:34:02.834Z,97.20
2019-05-13T08:36:33.704Z,98.00
2019-05-13T08:39:06.554Z,99.90
2019-05-13T08:41:37.545Z,99.50
2019-05-13T08:44:08.379Z,97.40
2019-05-13T08:46:41.440Z,96.80
2019-05-13T08:49:12.447Z,96.70
2019-05-13T08:51:43.260Z,96.60
2019-05-13T08:54:14.144Z,98.40
2019-05-13T08:56:44.978Z,97.90
2019-05-13T08:59:15.799Z,98.70
2019-05-13T09:01:46.682Z,95.70
2019-05-13T09:04:17.494Z,94.00
2019-05-13T09:06:48.295Z,88.60
2019-05-13T09:09:19.271Z,90.20
2019-05-13T09:11:51.715Z,86.30
2019-05-13T09:14:22.594Z,84.10
2019-05-13T09:16:53.539Z,86.10
2019-05-13T09:19:24.338Z,86.20
2019-05-13T09:21:55.320Z,91.50
2019-05-13T09:24:34.110Z,91.00
2019-05-13T09:26:58.802Z,92.20
2019-05-13T09:29:31.912Z,91.00
2019-05-13T09:32:03.752Z,90.20
2019-05-13T09:34:35.619Z,91.90
2019-05-13T09:37:06.594Z,92.20
2019-05-13T09:39:37.339Z,93.40
2019-05-13T09:42:08.194Z,96.70
2019-05-13T09:44:41.737Z,97.50
2019-05-13T09:47:12.527Z,98.50
2019-05-13T09:49:43.690Z,99.90
2019-05-13T09:52:14.644Z,99.90
2019-05-13T09:54:45.484Z,99.00
2019-05-13T09:57:16.430Z,99.90
2019-05-13T09:59:47.519Z,99.90
2019-05-13T10:02:18.332Z,99.90
2019-05-13T10:04:51.248Z,99.90
2019-05-13T10:07:22.922Z,99.90
2019-05-13T10:09:54.020Z,99.70
2019-05-13T10:12:25.029Z,99.90
2019-05-13T10:14:56.034Z,99.90
2019-05-13T10:17:26.934Z,99.90
2019-05-13T10:19:57.713Z,99.90
2019-05-13T10:22:28.684Z,99.90
2019-05-13T10:25:02.131Z,99.90
2019-05-13T10:27:32.938Z,99.90
2019-05-13T10:30:04.283Z,99.90
2019-05-13T10:32:35.229Z,99.90
2019-05-13T10:35:06.885Z,99.90
2019-05-13T10:37:38.129Z,99.90
2019-05-13T10:40:09.243Z,99.90
2019-05-13T10:42:43.314Z,99.90
2019-05-13T10:45:14.326Z,99.90
2019-05-13T10:47:45.378Z,99.90
2019-05-13T10:50:16.304Z,99.90
2019-05-13T10:52:47.179Z,99.90
2019-05-13T10:55:18.203Z,99.90
2019-05-13T10:57:51.306Z,99.90
2019-05-13T11:00:26.106Z,99.90
2019-05-13T11:02:56.863Z,99.90
2019-05-13T11:05:27.605Z,99.70
2019-05-13T11:07:58.606Z,98.20
2019-05-13T11:10:33.841Z,96.80
2019-05-13T11:15:41.133Z,97.40
2019-05-13T11:18:19.097Z,98.00
2019-05-13T11:20:43.604Z,97.30
2019-05-13T11:23:14.655Z,98.10
2019-05-13T11:25:45.410Z,96.20
2019-05-13T11:28:16.163Z,95.00
2019-05-13T11:30:47.424Z,92.90
2019-05-13T11:33:18.744Z,91.50
2019-05-13T11:35:52.102Z,90.60
2019-05-13T11:38:22.381Z,91.30
2019-05-13T11:40:53.373Z,90.90
2019-05-13T11:43:27.993Z,85.50
2019-05-13T11:45:56.784Z,92.50
2019-05-13T11:48:27.549Z,92.10
2019-05-13T11:50:58.469Z,91.80
2019-05-13T11:53:33.421Z,92.30
2019-05-13T11:56:03.702Z,94.30
2019-05-13T11:58:34.719Z,91.40
2019-05-13T12:01:06.124Z,92.00
2019-05-13T12:03:36.940Z,92.10
2019-05-13T12:06:07.855Z,92.20
2019-05-13T12:08:38.678Z,92.70
2019-05-13T12:11:10.377Z,90.70
2019-05-13T12:13:42.609Z,91.60
2019-05-13T12:16:13.698Z,93.00
2019-05-13T12:18:44.489Z,85.40
2019-05-13T12:21:15.531Z,87.00
2019-05-13T12:23:46.339Z,88.40
2019-05-13T12:26:17.380Z,90.00
2019-05-13T12:28:48.348Z,90.10
2019-05-13T12:31:22.018Z,87.10
2019-05-13T12:33:52.530Z,87.10
2019-05-13T12:36:24.125Z,86.30
2019-05-13T12:38:55.495Z,88.20
2019-05-13T12:41:26.519Z,86.00
2019-05-13T12:43:57.379Z,84.10
2019-05-13T12:46:28.229Z,88.00
2019-05-13T12:48:59.178Z,86.10
2019-05-13T12:51:32.495Z,85.60
2019-05-13T12:54:03.748Z,88.50
2019-05-13T12:56:34.791Z,86.80
2019-05-13T12:59:05.549Z,90.00
2019-05-13T13:01:36.190Z,90.20
2019-05-13T13:04:07.604Z,90.00
2019-05-13T13:06:41.717Z,90.30
2019-05-13T13:09:12.768Z,89.80
2019-05-13T13:11:43.973Z,90.80
2019-05-13T13:14:17.375Z,91.50
2019-05-13T13:16:47.334Z,92.20
2019-05-13T13:19:18.114Z,91.40
2019-05-13T13:21:52.392Z,91.70
2019-05-13T13:24:23.561Z,91.90
2019-05-13T13:26:53.890Z,91.50
2019-05-13T13:29:25.159Z,92.70
2019-05-13T13:31:56.059Z,93.50
2019-05-13T13:34:27.059Z,94.00
2019-05-13T13:36:57.703Z,94.40
2019-05-13T13:39:28.414Z,94.30
2019-05-13T13:41:59.386Z,94.30
2019-05-13T13:44:34.938Z,94.40
2019-05-13T13:47:02.094Z,95.50
2019-05-13T13:49:34.886Z,94.90
2019-05-13T13:52:05.411Z,95.80
2019-05-13T13:54:36.534Z,95.60
2019-05-13T13:57:07.304Z,95.40
2019-05-13T14:00:11.582Z,95.40
2019-05-13T14:02:13.470Z,95.70
2019-05-13T14:04:43.224Z,96.40
2019-05-13T14:07:14.038Z,97.10
2019-05-13T14:07:28.120Z,96.20
2019-05-13T14:09:46.840Z,97.80
2019-05-13T14:12:17.833Z,96.00
2019-05-13T14:14:48.628Z,96.30
2019-05-13T14:17:21.795Z,96.30
2019-05-13T14:19:52.386Z,97.50
2019-05-13T14:22:23.374Z,97.70
2019-05-13T14:24:54.445Z,98.90
2019-05-13T14:27:25.344Z,97.70
2019-05-13T14:29:56.595Z,98.30
2019-05-13T14:32:27.374Z,97.90
2019-05-13T14:34:58.239Z,98.20
2019-05-13T14:37:31.324Z,97.50
2019-05-13T14:40:02.466Z,98.00
2019-05-13T14:42:33.510Z,99.00
2019-05-13T14:45:04.361Z,99.60
2019-05-13T14:47:35.204Z,99.10
2019-05-13T14:50:06.569Z,98.30
2019-05-13T14:52:37.325Z,99.10
2019-05-13T14:55:08.660Z,99.00
2019-05-13T14:57:41.326Z,98.60
2019-05-13T15:00:13.144Z,98.70
2019-05-13T15:02:44.034Z,98.30
2019-05-13T15:05:14.800Z,97.50
2019-05-13T15:07:45.563Z,98.10
2019-05-13T15:10:16.598Z,98.10
2019-05-13T15:12:47.323Z,98.00
2019-05-13T15:15:18.999Z,98.40
2019-05-13T15:17:51.756Z,96.50
2019-05-13T15:20:22.269Z,95.10
2019-05-13T15:22:53.169Z,97.10
2019-05-13T15:25:24.038Z,95.70
2019-05-13T15:27:55.433Z,94.00
2019-05-13T15:30:26.314Z,95.30
2019-05-13T15:32:56.964Z,95.70
2019-05-13T15:35:27.700Z,96.20
2019-05-13T15:37:58.638Z,96.90
2019-05-13T15:40:31.227Z,96.90
2019-05-13T15:43:02.545Z,96.60
2019-05-13T15:45:33.292Z,96.60
2019-05-13T15:48:04.025Z,97.30
2019-05-13T15:50:34.882Z,96.90
2019-05-13T15:53:06.039Z,96.40
2019-05-13T15:55:36.980Z,97.40
2019-05-13T15:58:08.230Z,96.70
2019-05-13T16:00:41.701Z,96.10
2019-05-13T16:03:12.339Z,98.30
2019-05-13T16:05:43.394Z,97.80
2019-05-13T16:08:14.099Z,98.20
2019-05-13T16:10:45.105Z,98.30
2019-05-13T16:13:15.880Z,99.00
2019-05-13T16:15:46.569Z,98.30
2019-05-13T16:18:17.624Z,98.40
2019-05-13T16:20:48.550Z,97.70
2019-05-13T16:23:21.298Z,98.30
2019-05-13T16:25:52.184Z,99.00
2019-05-13T16:28:23.370Z,98.70
2019-05-13T16:30:54.524Z,98.30
2019-05-13T16:33:25.632Z,99.00
2019-05-13T16:35:56.496Z,99.60
2019-05-13T16:38:27.359Z,99.60
2019-05-13T16:40:58.204Z,99.70
2019-05-13T16:43:29.055Z,99.10
2019-05-13T16:45:59.985Z,99.40
2019-05-13T16:48:32.286Z,99.80
2019-05-13T16:51:03.324Z,99.80
2019-05-13T16:53:34.167Z,99.90
2019-05-13T16:56:05.420Z,99.90
2019-05-13T16:58:36.259Z,99.90
2019-05-13T17:01:07.041Z,99.90
2019-05-13T17:03:37.990Z,99.90
2019-05-13T17:06:08.865Z,99.90
2019-05-13T17:08:42.213Z,99.90
2019-05-13T17:11:12.184Z,99.90
2019-05-13T17:13:43.179Z,99.90
2019-05-13T17:16:14.009Z,99.90
2019-05-13T17:18:44.794Z,99.90
2019-05-13T17:21:15.571Z,99.90
2019-05-13T17:23:46.499Z,99.90
2019-05-13T17:26:17.564Z,99.90
2019-05-13T17:28:48.608Z,99.90
2019-05-13T17:31:21.733Z,99.90
2019-05-13T17:33:52.168Z,99.90
2019-05-13T17:36:23.116Z,99.90
2019-05-13T17:38:54.469Z,99.90
2019-05-13T17:41:25.430Z,99.90
2019-05-13T17:43:56.199Z,99.90
2019-05-13T17:46:27.164Z,99.90
2019-05-13T17:48:58.129Z,99.90
2019-05-13T17:51:28.980Z,99.90
2019-05-13T17:54:01.430Z,99.90
2019-05-13T17:56:32.529Z,99.90
2019-05-13T17:59:03.468Z,99.90
2019-05-13T18:01:34.559Z,99.90
2019-05-13T18:04:05.440Z,99.90
2019-05-13T18:06:36.389Z,99.90
2019-05-13T18:09:08.850Z,99.90
2019-05-13T18:11:41.751Z,99.90
2019-05-13T18:14:12.469Z,99.90
2019-05-13T18:16:43.426Z,99.90
2019-05-13T18:19:14.244Z,99.90
2019-05-13T18:21:45.179Z,99.90
2019-05-13T18:24:15.915Z,99.90
2019-05-13T18:26:46.791Z,99.90
2019-05-13T18:29:17.840Z,99.90
2019-05-13T18:31:48.626Z,99.90
2019-05-13T18:34:21.459Z,99.90
2019-05-13T18:36:52.294Z,99.90
2019-05-13T18:39:23.240Z,99.90
2019-05-13T18:41:54.199Z,99.90
2019-05-13T18:44:25.094Z,99.90
2019-05-13T18:46:56.300Z,99.90
2019-05-13T18:49:27.340Z,99.90
2019-05-13T18:51:58.384Z,99.90
2019-05-13T18:54:31.353Z,99.90
2019-05-13T18:57:02.139Z,99.90
2019-05-13T18:59:33.162Z,99.90
2019-05-13T19:02:04.165Z,99.90
2019-05-13T19:04:35.295Z,99.90
2019-05-13T19:07:07.835Z,99.90
2019-05-13T19:09:41.596Z,99.90
2019-05-13T19:12:11.839Z,99.90
2019-05-13T19:14:42.815Z,99.90
2019-05-13T19:17:13.859Z,99.90
2019-05-13T19:19:44.941Z,99.90
2019-05-13T19:22:15.875Z,99.90
2019-05-13T19:24:47.084Z,99.90
2019-05-13T19:27:18.104Z,99.90
2019-05-13T19:29:49.134Z,99.90
2019-05-13T19:32:21.888Z,99.90
2019-05-13T19:34:53.232Z,99.90
2019-05-13T19:37:24.214Z,99.90
2019-05-13T19:39:55.805Z,99.90
2019-05-13T19:42:26.974Z,99.90
2019-05-13T19:44:58.375Z,99.90
2019-05-13T19:47:30.015Z,99.90
2019-05-13T19:50:05.006Z,99.90
2019-05-13T19:52:41.447Z,99.90
2019-05-13T19:55:15.719Z,99.90
2019-05-13T19:57:51.647Z,99.90
2019-05-13T20:00:28.660Z,99.90
2019-05-13T20:02:59.967Z,99.90
2019-05-13T20:05:31.848Z,99.90
2019-05-13T20:08:03.148Z,99.90
2019-05-13T20:10:34.944Z,99.90
2019-05-13T20:13:05.984Z,99.90
2019-05-13T20:15:37.085Z,99.90
2019-05-13T20:18:08.311Z,99.90
2019-05-13T20:20:41.199Z,99.90
2019-05-13T20:23:12.196Z,99.90
2019-05-13T20:25:43.149Z,99.90
2019-05-13T20:28:14.044Z,99.90
2019-05-13T20:30:45.541Z,99.90
2019-05-13T20:33:16.644Z,99.90
2019-05-13T20:35:47.975Z,99.90
2019-05-13T20:38:19.099Z,99.90
2019-05-13T20:40:51.963Z,99.90
2019-05-13T20:43:23.410Z,99.90
2019-05-13T20:45:54.619Z,99.90
2019-05-13T20:48:25.604Z,99.90
2019-05-13T20:50:56.574Z,99.90
2019-05-13T20:53:27.540Z,99.90
2019-05-13T20:55:58.551Z,99.90
2019-05-13T20:58:31.594Z,99.90
2019-05-13T21:01:02.489Z,99.90
2019-05-13T21:03:33.894Z,99.90
2019-05-13T21:06:04.718Z,99.90
2019-05-13T21:08:35.486Z,99.90
2019-05-13T21:11:06.524Z,99.90
2019-05-13T21:13:37.433Z,99.90
2019-05-13T21:16:08.389Z,99.90
2019-05-13T21:18:39.248Z,99.90
2019-05-13T21:21:11.643Z,99.90
2019-05-13T21:23:42.441Z,99.90
2019-05-13T21:26:15.641Z,99.90
2019-05-13T21:28:45.854Z,99.90
2019-05-13T21:31:16.749Z,99.90
2019-05-13T21:33:47.590Z,99.90
2019-05-13T21:36:18.421Z,99.90
2019-05-13T21:38:49.373Z,99.90
2019-05-13T21:41:21.185Z,99.90
2019-05-13T21:43:52.217Z,99.90
2019-05-13T21:46:23.174Z,99.90
2019-05-13T21:48:54.115Z,99.90
2019-05-13T21:51:25.119Z,99.90
2019-05-13T21:53:56.204Z,99.90
2019-05-13T21:56:27.160Z,99.90
2019-05-13T21:58:58.069Z,99.90
2019-05-13T22:01:31.343Z,99.90
2019-05-13T22:04:01.774Z,99.90
2019-05-13T22:06:32.825Z,99.90
2019-05-13T22:09:04.029Z,99.90
2019-05-13T22:11:35.231Z,99.90
2019-05-13T22:14:06.186Z,99.90
2019-05-13T22:16:36.936Z,99.90
2019-05-13T22:19:07.751Z,99.90
2019-05-13T22:21:38.755Z,99.90
2019-05-13T22:24:11.426Z,99.90
2019-05-13T22:26:42.225Z,99.90
2019-05-13T22:29:13.449Z,99.90
2019-05-13T22:31:44.519Z,99.90
2019-05-13T22:34:15.289Z,99.90
2019-05-13T22:36:46.209Z,99.90
2019-05-13T22:39:16.994Z,99.90
2019-05-13T22:41:47.939Z,99.90
2019-05-13T22:44:21.654Z,99.90
2019-05-13T22:46:51.796Z,99.90
2019-05-13T22:49:22.783Z,99.90
2019-05-13T22:51:53.711Z,99.90
2019-05-13T22:54:24.429Z,99.90
2019-05-13T22:56:55.414Z,99.90
2019-05-13T22:59:26.279Z,99.90
2019-05-13T23:01:57.162Z,99.90
2019-05-13T23:04:27.989Z,99.90
2019-05-13T23:07:01.132Z,99.90
2019-05-13T23:09:32.183Z,99.90
2019-05-13T23:12:03.388Z,99.90
2019-05-13T23:14:34.289Z,99.90
2019-05-13T23:17:05.104Z,99.90
2019-05-13T23:19:36.033Z,99.90
2019-05-13T23:22:07.464Z,99.90
2019-05-13T23:24:38.261Z,99.90
2019-05-13T23:27:10.986Z,99.90
2019-05-13T23:29:41.469Z,99.90
2019-05-13T23:32:12.285Z,99.90
2019-05-13T23:34:43.151Z,99.90
2019-05-13T23:37:13.981Z,99.90
2019-05-13T23:39:44.854Z,99.90
2019-05-13T23:42:16.019Z,99.90
2019-05-13T23:44:46.825Z,99.90
2019-05-13T23:47:17.694Z,99.90
2019-05-13T23:49:48.638Z,99.90
2019-05-13T23:52:21.589Z,99.90
2019-05-13T23:54:51.920Z,99.90
2019-05-13T23:57:22.869Z,99.90
2019-05-13T23:59:53.716Z,99.90
